Time;durP1;ratioP1;P1;durP2;ratioP2;P2;SDS_P1;SDS_P2;PMS_P1;PMS_P2;Temp;Humidity;BMP_temperature;BMP_pressure;BME280_temperature;BME280_humidity;BME280_pressure;Samples;Min_cycle;Max_cycle;Signal;HPM_P1;HPM_P2
2022/07/08 00:00:33;;;;;;;7.63;1.98;;;;;;;14.41;83.71;68369.81;5083397;28;20032;-79
2022/07/08 00:02:58;;;;;;;8.93;2.35;;;;;;;;;;5079659;28;20056;-79
2022/07/08 00:05:23;;;;;;;13.27;2.72;;;;;;;14.40;83.87;68373.47;5072165;28;20106;-80
2022/07/08 00:07:49;;;;;;;7.32;2.10;;;;;;;;;;5074384;28;20037;-79
2022/07/08 00:10:14;;;;;;;7.90;1.98;;;;;;;14.38;83.79;68371.19;5075040;28;20116;-80
2022/07/08 00:12:40;;;;;;;6.53;2.33;;;;;;;;;;5098198;28;20028;-79
2022/07/08 00:15:06;;;;;;;7.88;1.98;;;;;;;14.28;84.00;68355.03;5081966;28;20040;-79
2022/07/08 00:17:32;;;;;;;8.68;2.03;;;;;;;14.27;84.51;68358.66;5073839;28;20044;-79
2022/07/08 00:19:57;;;;;;;7.30;2.40;;;;;;;;;;5070064;28;20105;-79
2022/07/08 00:22:22;;;;;;;10.02;2.08;;;;;;;14.15;84.71;68340.78;5068742;28;20043;-79
2022/07/08 00:24:48;;;;;;;8.40;2.10;;;;;;;;;;5078825;28;20044;-80
2022/07/08 00:27:13;;;;;;;16.90;2.72;;;;;;;;;;5071573;28;20041;-78
2022/07/08 00:29:38;;;;;;;7.15;1.70;;;;;;;;;;5073872;28;20066;-79
2022/07/08 00:32:04;;;;;;;8.50;2.20;;;;;;;14.04;85.85;68333.63;5080910;28;20074;-79
2022/07/08 00:34:29;;;;;;;11.13;2.40;;;;;;;;;;5079460;28;20112;-80
2022/07/08 00:36:55;;;;;;;8.80;2.10;;;;;;;13.94;86.22;68322.25;5082103;28;20056;-79
2022/07/08 00:39:20;;;;;;;6.80;2.08;;;;;;;13.91;86.73;68313.47;5071244;28;20105;-80
2022/07/08 00:41:45;;;;;;;7.22;1.90;;;;;;;13.80;87.37;68306.88;5065804;28;20646;-79
2022/07/08 00:44:11;;;;;;;7.82;2.17;;;;;;;;;;5067524;28;20033;-79
2022/07/08 00:46:36;;;;;;;8.13;2.00;;;;;;;;;;5067717;28;20482;-79
2022/07/08 00:49:01;;;;;;;9.60;2.50;;;;;;;13.74;88.36;68300.06;5068652;28;20064;-79
2022/07/08 00:51:27;;;;;;;8.90;2.00;;;;;;;;;;5067324;28;20043;-79
2022/07/08 00:53:54;;;;;;;8.45;2.15;;;;;;;13.79;88.38;68299.84;5069137;28;20448;-79
2022/07/08 00:56:23;;;;;;;6.38;2.08;;;;;;;13.79;88.58;68305.19;5068951;28;20029;-79
2022/07/08 00:58:49;;;;;;;17.92;2.78;;;;;;;;;;5067609;28;20115;-78
2022/07/08 01:01:15;;;;;;;9.38;2.25;;;;;;;13.82;88.71;68303.81;5068988;28;20064;-78
2022/07/08 01:03:43;;;;;;;4.35;1.83;;;;;;;13.84;88.69;68306.09;5067709;28;20040;-79
2022/07/08 01:06:08;;;;;;;9.48;2.55;;;;;;;13.86;88.51;68313.13;5068469;28;20065;-79
2022/07/08 01:08:33;;;;;;;10.40;2.50;;;;;;;13.87;88.49;68308.94;5066271;28;20064;-80
2022/07/08 01:10:59;;;;;;;10.45;2.67;;;;;;;13.87;88.52;68314.28;5065799;28;20058;-79
2022/07/08 01:13:25;;;;;;;9.90;2.42;;;;;;;13.88;88.30;68310.63;5061913;28;20045;-79
2022/07/08 01:15:50;;;;;;;8.10;2.40;;;;;;;13.89;88.29;68311.75;5066040;28;20516;-79
2022/07/08 01:18:26;;;;;;;8.13;2.20;;;;;;;13.90;88.43;68317.69;5064467;28;20041;-80
2022/07/08 01:20:52;;;;;;;6.97;2.22;;;;;;;13.88;88.75;68310.06;5061668;28;20055;-78
2022/07/08 01:23:17;;;;;;;9.85;2.72;;;;;;;;;;5065614;28;20041;-80
2022/07/08 01:25:44;;;;;;;8.35;2.72;;;;;;;13.89;88.74;68311.19;5063701;28;20072;-80
2022/07/08 01:28:09;;;;;;;8.20;2.67;;;;;;;13.83;89.31;68304.94;5065796;28;20052;-79
2022/07/08 01:30:35;;;;;;;7.32;2.90;;;;;;;13.87;88.91;68308.94;5065337;28;21354;-80
2022/07/08 01:33:00;;;;;;;8.38;2.40;;;;;;;13.86;88.91;68313.13;5065100;28;20040;-79
2022/07/08 01:35:25;;;;;;;9.57;2.20;;;;;;;;;;5063311;28;20047;-79
2022/07/08 01:37:50;;;;;;;6.32;2.10;;;;;;;13.80;89.46;68300.97;5064624;28;20463;-78
2022/07/08 01:40:16;;;;;;;5.85;2.42;;;;;;;13.80;89.70;68306.31;5065632;28;20047;-81
2022/07/08 01:42:41;;;;;;;8.93;2.55;;;;;;;13.89;89.50;68316.56;5071320;28;20047;-79
2022/07/08 01:45:07;;;;;;;8.98;2.95;;;;;;;;;;5064084;28;20044;-80
2022/07/08 01:47:32;;;;;;;9.65;2.65;;;;;;;;;;5058482;28;20068;-78
2022/07/08 01:49:57;;;;;;;10.68;2.88;;;;;;;13.89;89.26;68311.19;5063379;28;20064;-78
2022/07/08 01:52:23;;;;;;;6.90;2.67;;;;;;;13.84;89.39;68305.50;5063359;28;20036;-78
2022/07/08 01:54:50;;;;;;;7.03;2.60;;;;;;;13.86;89.36;68307.78;5062633;28;20574;-79
2022/07/08 01:57:15;;;;;;;9.07;2.40;;;;;;;;;;5065151;28;20075;-79
2022/07/08 01:59:44;;;;;;;9.00;2.60;;;;;;;;;;5063055;28;20724;-79
2022/07/08 02:02:11;;;;;;;9.73;2.80;;;;;;;13.83;89.65;68312.41;5066167;28;20043;-79
2022/07/08 02:04:37;;;;;;;7.15;2.40;;;;;;;13.81;89.58;68307.44;5065046;28;20083;-79
2022/07/08 02:07:03;;;;;;;8.27;2.80;;;;;;;13.82;89.69;68308.59;5063870;28;20120;-79
2022/07/08 02:09:28;;;;;;;7.72;2.97;;;;;;;13.82;89.66;68303.25;5064897;28;20056;-79
2022/07/08 02:14:38;;;;;;;13.93;3.20;;;;;;;13.79;90.04;68305.19;5065169;28;20048;-80
2022/07/08 02:17:03;;;;;;;10.15;2.75;;;;;;;;;;5064592;28;20044;-79
2022/07/08 02:19:29;;;;;;;12.00;3.10;;;;;;;13.80;90.02;68301.53;5065024;28;20040;-78
2022/07/08 02:21:55;;;;;;;11.18;3.05;;;;;;;13.77;90.29;68303.47;5065567;28;20032;-80
2022/07/08 02:24:20;;;;;;;13.00;3.00;;;;;;;;;;5079799;28;20078;-79
2022/07/08 02:26:45;;;;;;;9.85;3.05;;;;;;;13.81;90.05;68308.03;5066081;28;20076;-78
2022/07/08 02:29:10;;;;;;;8.85;2.97;;;;;;;;;;5064336;28;20036;-79
2022/07/08 02:31:36;;;;;;;7.30;2.72;;;;;;;;;;5064455;28;20032;-80
2022/07/08 02:34:01;;;;;;;8.10;3.00;;;;;;;;;;5066735;28;20440;-80
2022/07/08 02:36:26;;;;;;;10.75;3.25;;;;;;;13.74;90.54;68300.63;5064763;28;20049;-80
2022/07/08 02:38:52;;;;;;;10.07;3.22;;;;;;;13.70;90.79;68296.06;5065145;28;20153;-79
2022/07/08 02:41:18;;;;;;;9.00;3.30;;;;;;;13.71;90.93;68299.88;5062964;28;20483;-81
2022/07/08 02:43:43;;;;;;;9.25;3.17;;;;;;;;;;5063440;28;20051;-80
2022/07/08 02:46:08;;;;;;;9.38;3.05;;;;;;;;;;5062741;28;20068;-81
2022/07/08 02:48:34;;;;;;;7.28;3.17;;;;;;;;;;5066751;28;20097;-79
2022/07/08 02:50:59;;;;;;;7.50;3.35;;;;;;;;;;5063887;28;20185;-78
2022/07/08 02:53:24;;;;;;;10.70;3.40;;;;;;;;;;5063047;28;20040;-78
2022/07/08 02:55:49;;;;;;;7.07;2.67;;;;;;;13.67;90.86;68292.66;5063636;28;20075;-78
2022/07/08 02:58:15;;;;;;;9.05;3.33;;;;;;;13.69;90.88;68289.56;5065004;28;20551;-79
2022/07/08 03:00:40;;;;;;;8.23;3.35;;;;;;;13.68;91.09;68293.78;5061968;28;20119;-80
2022/07/08 03:03:06;;;;;;;9.93;3.60;;;;;;;13.65;90.93;68284.47;5080530;22;20588;-77
2022/07/08 03:05:31;;;;;;;10.43;3.40;;;;;;;;;;5071642;28;20043;-77
2022/07/08 03:07:56;;;;;;;8.95;3.40;;;;;;;13.75;90.19;68301.19;5071350;28;20044;-76
2022/07/08 03:10:22;;;;;;;7.40;3.13;;;;;;;;;;5075696;28;20132;-77
2022/07/08 03:12:47;;;;;;;9.13;3.05;;;;;;;;;;5075149;28;20404;-77
2022/07/08 03:15:13;;;;;;;8.75;3.08;;;;;;;;;;5078660;28;20033;-77
2022/07/08 03:17:38;;;;;;;8.03;3.30;;;;;;;;;;5076022;28;20048;-77
2022/07/08 03:20:05;;;;;;;9.70;3.45;;;;;;;13.64;90.80;68281.22;5081761;28;20361;-77
2022/07/08 03:22:30;;;;;;;9.43;2.88;;;;;;;;;;5078117;28;20043;-77
2022/07/08 03:24:56;;;;;;;11.70;3.10;;;;;;;;;;5078110;28;20036;-77
2022/07/08 03:27:21;;;;;;;10.73;3.70;;;;;;;;;;5073566;28;20613;-76
2022/07/08 03:29:46;;;;;;;9.85;2.97;;;;;;;13.63;90.60;68282.75;5077570;28;20044;-77
2022/07/08 03:32:12;;;;;;;9.20;3.50;;;;;;;;;;5069115;28;20079;-78
2022/07/08 03:34:37;;;;;;;11.30;3.60;;;;;;;;;;5080628;28;20032;-77
2022/07/08 03:37:02;;;;;;;10.75;3.22;;;;;;;13.58;91.09;68277.09;5073915;28;20133;-77
2022/07/08 03:39:28;;;;;;;8.75;3.55;;;;;;;;;;5081921;28;20036;-76
2022/07/08 03:41:53;;;;;;;6.53;2.90;;;;;;;13.53;90.96;68277.31;5072769;28;20036;-77
2022/07/08 03:44:18;;;;;;;9.02;3.25;;;;;;;13.54;90.97;68278.44;5080873;28;20092;-77
2022/07/08 03:46:44;;;;;;;9.13;3.58;;;;;;;13.53;90.83;68276.75;5073543;28;20040;-78
2022/07/08 03:49:09;;;;;;;12.15;2.83;;;;;;;13.54;90.66;68272.53;5071518;28;20055;-78
2022/07/08 03:51:34;;;;;;;8.00;3.00;;;;;;;;;;5071558;28;20056;-77
2022/07/08 03:54:00;;;;;;;9.32;3.40;;;;;;;13.46;90.67;68263.97;5071599;28;20045;-78
2022/07/08 03:56:25;;;;;;;7.88;2.80;;;;;;;13.44;91.09;68261.16;5082680;28;20561;-76
2022/07/08 03:58:51;;;;;;;9.20;3.25;;;;;;;13.44;90.95;68266.50;5081963;28;20025;-79
2022/07/08 04:01:16;;;;;;;11.13;3.33;;;;;;;13.43;91.27;68265.34;5080249;28;20048;-77
2022/07/08 04:03:41;;;;;;;9.38;3.30;;;;;;;13.41;91.36;68263.66;5075806;28;20044;-78
2022/07/08 04:06:07;;;;;;;9.40;3.22;;;;;;;;;;5083350;28;20041;-76
2022/07/08 04:08:32;;;;;;;10.83;3.80;;;;;;;13.36;91.75;68252.06;5066603;28;20098;-78
2022/07/08 04:10:57;;;;;;;7.35;3.22;;;;;;;13.31;91.95;68252.84;5067750;28;20271;-78
2022/07/08 04:13:25;;;;;;;11.20;3.90;;;;;;;;;;5072736;28;20036;-78
2022/07/08 04:15:51;;;;;;;7.72;3.60;;;;;;;13.24;91.91;68244.88;5071345;28;20040;-78
2022/07/08 04:18:16;;;;;;;12.25;3.85;;;;;;;13.16;92.60;68230.41;5080361;28;20059;-78
2022/07/08 04:20:42;;;;;;;7.22;3.58;;;;;;;;;;5074875;28;20036;-79
2022/07/08 04:23:07;;;;;;;8.63;3.78;;;;;;;13.08;92.82;68227.22;5082927;28;20420;-78
2022/07/08 04:25:32;;;;;;;11.77;3.90;;;;;;;;;;5077217;28;20146;-77
2022/07/08 04:27:58;;;;;;;8.60;3.40;;;;;;;;;;5068827;28;20032;-76
2022/07/08 04:30:24;;;;;;;9.02;3.75;;;;;;;13.17;92.76;68236.34;5070473;28;20068;-77
2022/07/08 04:32:50;;;;;;;9.50;3.47;;;;;;;13.20;92.88;68240.31;5065729;28;20040;-76
2022/07/08 04:35:15;;;;;;;7.97;3.20;;;;;;;13.16;93.03;68235.75;5074230;28;20047;-76
2022/07/08 04:37:41;;;;;;;8.35;3.60;;;;;;;13.18;92.51;68238.06;5073378;28;20044;-78
2022/07/08 04:40:06;;;;;;;8.13;3.40;;;;;;;;;;5079148;28;20032;-78
2022/07/08 04:42:32;;;;;;;9.57;3.10;;;;;;;;;;5073486;28;20032;-77
2022/07/08 04:44:57;;;;;;;9.50;3.10;;;;;;;;;;5078071;28;20496;-77
2022/07/08 04:47:22;;;;;;;8.85;3.58;;;;;;;13.26;91.77;68247.16;5072326;28;20837;-78
2022/07/08 04:49:48;;;;;;;9.15;3.42;;;;;;;13.26;91.89;68247.16;5071254;28;20481;-78
2022/07/08 04:52:13;;;;;;;8.60;3.67;;;;;;;13.32;91.97;68254.00;5073132;28;20148;-79
2022/07/08 04:54:38;;;;;;;9.68;3.63;;;;;;;13.29;91.45;68245.22;5071662;28;20056;-79
2022/07/08 04:57:05;;;;;;;11.27;3.65;;;;;;;13.30;92.18;68251.72;5074191;28;20552;-77
2022/07/08 04:59:31;;;;;;;9.82;3.50;;;;;;;13.31;92.27;68252.84;5073613;28;20040;-77
2022/07/08 05:01:56;;;;;;;7.85;3.47;;;;;;;;;;5031805;28;1115506;-77
2022/07/08 05:04:21;;;;;;;10.80;3.90;;;;;;;13.36;91.50;68257.41;5076927;28;20040;-77
2022/07/08 05:06:47;;;;;;;13.23;4.03;;;;;;;13.42;91.17;68264.78;5091363;28;20092;-79
2022/07/08 05:09:13;;;;;;;9.27;3.35;;;;;;;13.44;91.00;68267.06;5077360;28;20094;-76
2022/07/08 05:11:38;;;;;;;6.78;3.72;;;;;;;13.47;91.18;68264.56;5074124;28;20073;-78
2022/07/08 05:14:03;;;;;;;8.65;3.55;;;;;;;13.54;90.96;68270.41;5075997;28;20547;-79
2022/07/08 05:16:29;;;;;;;9.75;3.03;;;;;;;13.51;90.65;68269.69;5074788;28;20048;-76
2022/07/08 05:18:54;;;;;;;9.82;3.50;;;;;;;13.54;90.23;68278.44;5081940;28;20089;-77
2022/07/08 05:21:19;;;;;;;5.68;3.03;;;;;;;13.65;90.06;68289.81;5078112;28;20103;-78
2022/07/08 05:23:45;;;;;;;9.57;3.15;;;;;;;;;;5077118;28;20051;-78
2022/07/08 05:26:10;;;;;;;7.38;3.05;;;;;;;13.73;89.77;68298.94;5079424;28;20040;-76
2022/07/08 05:28:35;;;;;;;6.90;2.72;;;;;;;13.74;89.24;68303.28;5076914;28;20060;-78
2022/07/08 05:31:01;;;;;;;5.88;3.20;;;;;;;;;;5079116;28;20127;-78
2022/07/08 05:33:26;;;;;;;8.27;2.90;;;;;;;13.97;88.06;68325.66;5078734;28;20044;-78
2022/07/08 05:35:51;;;;;;;9.98;3.47;;;;;;;;;;5077258;28;20045;-79
2022/07/08 05:38:17;;;;;;;7.07;2.55;;;;;;;;;;5077959;28;20033;-78
2022/07/08 05:40:42;;;;;;;11.15;3.03;;;;;;;14.14;86.30;68350.34;5082652;28;20051;-78
2022/07/08 05:43:07;;;;;;;9.13;2.72;;;;;;;14.21;86.36;68352.97;5081452;28;20443;-79
2022/07/08 05:45:33;;;;;;;8.02;2.67;;;;;;;14.32;85.30;68359.56;5088346;28;20044;-78
2022/07/08 05:47:58;;;;;;;8.60;3.00;;;;;;;;;;5081403;28;20078;-79
2022/07/08 05:50:24;;;;;;;7.15;2.78;;;;;;;14.37;85.88;68370.03;5075458;28;20040;-79
2022/07/08 05:52:49;;;;;;;7.85;3.17;;;;;;;14.36;85.57;68363.56;5075214;28;20550;-79
2022/07/08 05:55:15;;;;;;;8.48;3.08;;;;;;;14.38;85.78;68365.81;5075231;28;20106;-79
2022/07/08 05:57:40;;;;;;;7.40;2.50;;;;;;;;;;5074411;28;20052;-78
2022/07/08 06:00:06;;;;;;;7.22;2.72;;;;;;;14.43;84.72;68376.88;5078806;28;20066;-79
2022/07/08 06:02:31;;;;;;;9.82;2.67;;;;;;;14.38;84.71;68366.38;5076071;28;20041;-77
2022/07/08 06:04:57;;;;;;;10.07;3.13;;;;;;;;;;5083190;28;20051;-79
2022/07/08 06:07:22;;;;;;;8.52;2.85;;;;;;;14.43;84.89;68376.88;5072491;28;20055;-80
2022/07/08 06:09:48;;;;;;;6.95;2.33;;;;;;;14.53;84.94;68382.94;5074030;28;20036;-79
2022/07/08 06:12:13;;;;;;;6.00;2.50;;;;;;;14.61;85.18;68397.38;5070489;28;20044;-77
2022/07/08 06:14:38;;;;;;;10.13;2.38;;;;;;;;;;5071452;28;20044;-79
2022/07/08 06:17:04;;;;;;;9.00;2.80;;;;;;;;;;5071720;28;20072;-79
2022/07/08 06:19:29;;;;;;;8.43;2.70;;;;;;;14.94;83.35;68428.47;5067002;28;20046;-79
2022/07/08 06:21:54;;;;;;;9.95;3.15;;;;;;;;;;5071724;28;20109;-79
2022/07/08 06:24:23;;;;;;;7.35;2.67;;;;;;;15.11;83.15;68447.25;5074050;28;20033;-78
2022/07/08 06:26:48;;;;;;;7.93;2.30;;;;;;;15.25;82.39;68468.56;5080175;28;20024;-79
2022/07/08 06:29:13;;;;;;;11.63;2.70;;;;;;;15.27;80.77;68470.28;5071927;28;20673;-79
2022/07/08 06:31:39;;;;;;;10.98;2.63;;;;;;;;;;5076924;28;20044;-77
2022/07/08 06:34:05;;;;;;;8.70;2.28;;;;;;;;;;5071137;28;20557;-78
2022/07/08 06:36:32;;;;;;;6.60;2.35;;;;;;;15.16;81.64;68452.38;5074649;28;20051;-78
2022/07/08 06:38:58;;;;;;;11.73;2.42;;;;;;;15.27;81.78;68462.22;5062903;28;20132;-78
2022/07/08 06:41:23;;;;;;;8.23;2.90;;;;;;;15.26;80.91;68464.34;5072989;28;20123;-78
2022/07/08 06:43:49;;;;;;;7.13;2.83;;;;;;;;;;5069757;28;20548;-78
2022/07/08 06:46:14;;;;;;;7.80;1.80;;;;;;;15.17;81.06;68458.88;5074809;28;20807;-79
2022/07/08 06:48:40;;;;;;;7.82;2.15;;;;;;;15.18;81.97;68455.22;5072274;28;20115;-79
2022/07/08 06:51:05;;;;;;;12.13;2.80;;;;;;;;;;5068683;28;20098;-79
2022/07/08 06:56:15;;;;;;;6.55;2.25;;;;;;;;;;5063754;28;20067;-79
2022/07/08 06:58:40;;;;;;;5.95;1.67;;;;;;;15.62;80.26;68509.56;5066263;28;20493;-77
2022/07/08 07:01:05;;;;;;;7.80;2.05;;;;;;;15.71;80.08;68511.25;5064369;28;20112;-78
2022/07/08 07:03:31;;;;;;;7.25;1.63;;;;;;;15.72;79.35;68512.38;5067841;28;20055;-78
2022/07/08 07:05:56;;;;;;;8.07;2.40;;;;;;;15.63;79.86;68504.78;5061864;28;20028;-78
2022/07/08 07:08:21;;;;;;;9.18;2.45;;;;;;;15.67;80.02;68514.69;5069067;28;20059;-79
2022/07/08 07:10:47;;;;;;;5.70;2.05;;;;;;;;;;5062288;28;20393;-79
2022/07/08 07:13:12;;;;;;;8.00;2.15;;;;;;;;;;5070299;28;20045;-79
2022/07/08 07:15:38;;;;;;;5.78;1.83;;;;;;;;;;5071055;28;20051;-77
2022/07/08 07:18:03;;;;;;;7.47;2.00;;;;;;;16.05;77.70;68549.41;5066974;28;20048;-79
2022/07/08 07:20:28;;;;;;;8.05;1.90;;;;;;;16.24;79.20;68578.56;5070702;28;20653;-79
2022/07/08 07:22:54;;;;;;;8.25;1.95;;;;;;;;;;5067240;28;20917;-79
2022/07/08 07:25:19;;;;;;;7.45;2.42;;;;;;;;;;5068764;28;20048;-80
2022/07/08 07:27:44;;;;;;;7.70;1.90;;;;;;;;;;5068917;28;20049;-79
2022/07/08 07:30:10;;;;;;;9.52;1.52;;;;;;;16.35;76.33;68585.72;5069379;28;20040;-78
2022/07/08 07:32:36;;;;;;;5.63;1.90;;;;;;;16.50;77.13;68607.06;5061649;28;20049;-78
2022/07/08 07:35:01;;;;;;;7.25;1.65;;;;;;;16.61;76.56;68614.22;5070466;28;20109;-78
2022/07/08 07:37:26;;;;;;;8.80;2.03;;;;;;;;;;5066681;28;20187;-79
2022/07/08 07:39:51;;;;;;;7.15;2.40;;;;;;;;;;5064537;28;20538;-79
2022/07/08 07:42:17;;;;;;;8.05;2.08;;;;;;;16.55;77.82;68607.38;5071289;28;20098;-79
2022/07/08 07:44:42;;;;;;;9.82;2.05;;;;;;;16.62;77.15;68615.34;5066693;28;20046;-78
2022/07/08 07:47:08;;;;;;;8.07;2.88;;;;;;;;;;5063809;28;20111;-78
2022/07/08 07:49:33;;;;;;;9.70;2.38;;;;;;;16.54;77.25;68606.22;5069692;28;20063;-79
2022/07/08 07:51:58;;;;;;;6.95;1.90;;;;;;;16.56;77.40;68608.53;5069959;28;20127;-79
2022/07/08 07:54:24;;;;;;;8.30;2.25;;;;;;;;;;5071835;28;20041;-80
2022/07/08 07:56:49;;;;;;;8.03;2.10;;;;;;;16.70;76.66;68621.78;5068611;28;20043;-80
2022/07/08 07:59:14;;;;;;;5.88;1.98;;;;;;;;;;5074429;28;20278;-79
2022/07/08 08:01:40;;;;;;;7.43;2.07;;;;;;;16.87;75.79;68643.31;5071660;28;20048;-78
2022/07/08 08:04:05;;;;;;;6.25;1.90;;;;;;;16.96;74.79;68650.34;5074469;28;20300;-79
2022/07/08 08:06:30;;;;;;;6.72;1.60;;;;;;;16.96;75.13;68650.34;5080817;28;20036;-77
2022/07/08 08:08:57;;;;;;;6.30;2.15;;;;;;;16.98;75.16;68653.19;5073586;28;20064;-77
2022/07/08 08:11:23;;;;;;;7.72;2.00;;;;;;;17.11;74.42;68670.13;5075922;28;20036;-77
2022/07/08 08:13:48;;;;;;;8.18;3.05;;;;;;;17.10;74.71;68669.56;5078611;28;20054;-79
2022/07/08 08:16:14;;;;;;;5.43;2.13;;;;;;;17.22;74.69;68682.66;5084113;28;20040;-79
2022/07/08 08:18:39;;;;;;;5.95;1.88;;;;;;;17.35;73.51;68696.94;5075585;28;20048;-79
2022/07/08 08:21:05;;;;;;;9.02;2.10;;;;;;;17.39;72.25;68700.94;5069357;28;20825;-79
2022/07/08 08:23:30;;;;;;;6.57;1.65;;;;;;;17.48;71.65;68711.19;5072526;28;20036;-79
2022/07/08 08:25:58;;;;;;;7.85;1.88;;;;;;;17.45;71.67;68713.16;5068948;28;20043;-79
2022/07/08 08:28:24;;;;;;;5.85;1.90;;;;;;;17.36;72.15;68698.63;5079456;28;20416;-79
2022/07/08 08:30:50;;;;;;;8.70;2.55;;;;;;;;;;5046467;28;20051;-77
2022/07/08 08:33:20;;;;;;;8.13;2.08;;;;;;;17.59;72.70;68721.06;5069644;28;20044;-80
2022/07/08 08:35:46;;;;;;;8.30;1.83;;;;;;;17.83;72.03;68750.00;5069709;28;20040;-80
2022/07/08 08:38:11;;;;;;;6.75;2.00;;;;;;;;;;5070192;28;20048;-81
2022/07/08 08:40:38;;;;;;;8.48;2.60;;;;;;;18.00;72.19;68774.81;5077382;28;20048;-80
2022/07/08 08:43:03;;;;;;;6.60;1.65;;;;;;;17.99;71.52;68768.28;5060639;28;20165;-79
2022/07/08 08:45:30;;;;;;;7.03;1.80;;;;;;;17.80;71.38;68745.03;5064746;28;20063;-77
2022/07/08 08:47:59;;;;;;;7.05;1.95;;;;;;;17.85;71.74;68752.31;5071282;28;20087;-79
2022/07/08 08:53:13;;;;;;;9.38;1.75;;;;;;;17.76;72.34;68743.16;5078202;28;20067;-79
2022/07/08 08:55:39;;;;;;;6.50;2.03;;;;;;;;;;5081588;28;20123;-79
2022/07/08 08:58:06;;;;;;;11.13;2.58;;;;;;;17.82;72.20;68754.84;5074084;28;20132;-79
2022/07/08 09:00:34;;;;;;;6.82;2.03;;;;;;;17.83;72.96;68750.00;5087126;28;20106;-77
2022/07/08 09:03:00;;;;;;;8.05;2.30;;;;;;;17.87;73.46;68755.16;5069407;28;20048;-79
2022/07/08 09:05:26;;;;;;;8.45;2.20;;;;;;;18.06;72.90;68775.69;5068395;28;20119;-80
2022/07/08 09:07:53;;;;;;;6.85;2.25;;;;;;;17.90;73.07;68758.00;5059590;28;20549;-80
2022/07/08 09:10:19;;;;;;;8.15;2.25;;;;;;;17.90;72.82;68755.31;5065513;28;20546;-77
2022/07/08 09:13:04;;;;;;;5.43;2.38;;;;;;;17.81;71.56;68746.19;5072401;28;20044;-78
2022/07/08 09:15:33;;;;;;;9.05;1.98;;;;;;;17.93;72.89;68756.63;5072084;28;20043;-79
2022/07/08 09:17:59;;;;;;;;;;;;;;;18.00;72.14;68769.41;5075287;28;20071;-80
2022/07/08 09:20:25;;;;;;;3.35;1.60;;;;;;;17.94;72.18;68762.56;5075925;28;19955;-77
2022/07/08 09:22:50;;;;;;;9.70;2.10;;;;;;;18.04;72.32;68774.00;5076067;28;21362;-80
2022/07/08 09:25:15;;;;;;;7.00;1.67;;;;;;;;;;5082248;28;20066;-78
2022/07/08 09:27:41;;;;;;;11.18;2.35;;;;;;;18.16;72.02;68787.69;5080991;28;20040;-78
2022/07/08 09:30:07;;;;;;;9.35;2.08;;;;;;;18.21;73.18;68793.41;5077044;28;20048;-77
2022/07/08 09:32:32;;;;;;;7.18;2.15;;;;;;;;;;5078713;28;20516;-79
2022/07/08 09:34:57;;;;;;;7.10;2.42;;;;;;;18.35;73.17;68808.22;5073341;28;20099;-79
2022/07/08 09:37:23;;;;;;;8.88;2.72;;;;;;;18.29;73.44;68798.69;5068168;28;20041;-80
2022/07/08 09:39:48;;;;;;;7.10;2.30;;;;;;;;;;5070672;28;20040;-80
2022/07/08 09:42:14;;;;;;;6.63;2.40;;;;;;;18.31;73.07;68801.53;5066458;28;20051;-77
2022/07/08 09:44:41;;;;;;;6.65;2.45;;;;;;;18.37;73.18;68807.81;5072696;28;20552;-78
2022/07/08 09:47:11;;;;;;;9.50;2.13;;;;;;;18.51;73.77;68823.25;5077131;28;20105;-80
2022/07/08 09:49:43;;;;;;;5.95;1.92;;;;;;;18.59;73.42;68835.63;5065061;28;20082;-77
2022/07/08 09:52:09;;;;;;;7.13;2.00;;;;;;;;;;5065018;28;20044;-77
2022/07/08 09:54:34;;;;;;;6.70;2.25;;;;;;;18.66;72.39;68849.00;5071063;28;20055;-77
2022/07/08 09:57:05;;;;;;;9.38;2.78;;;;;;;18.58;71.50;68831.78;5071270;28;20079;-79
2022/07/08 09:59:31;;;;;;;7.00;2.45;;;;;;;;;;5071842;28;20601;-78
2022/07/08 10:01:57;;;;;;;4.65;1.73;;;;;;;18.65;71.64;68842.50;5062361;28;20037;-77
2022/07/08 10:04:23;;;;;;;8.25;2.55;;;;;;;18.60;71.35;68836.78;5066214;28;20036;-80
2022/07/08 10:06:53;;;;;;;7.40;1.90;;;;;;;18.76;72.19;68849.13;5065145;28;20041;-78
2022/07/08 10:09:19;;;;;;;;;;;;;;;18.78;70.43;68861.59;5065053;28;20037;-79
2022/07/08 10:11:45;;;;;;;6.45;1.85;;;;;;;18.71;71.38;68848.78;5065940;28;19974;-79
2022/07/08 10:14:11;;;;;;;6.53;2.10;;;;;;;;;;5060642;28;20501;-81
2022/07/08 10:16:38;;;;;;;7.63;2.30;;;;;;;;;;5060444;28;20041;-79
2022/07/08 10:19:05;;;;;;;7.65;1.90;;;;;;;;;;5061314;28;20067;-81
2022/07/08 10:21:31;;;;;;;7.00;2.20;;;;;;;;;;5062206;28;20040;-80
2022/07/08 10:23:56;;;;;;;5.82;2.40;;;;;;;18.87;71.20;68863.78;5058060;28;20071;-81
2022/07/08 10:26:51;;;;;;;5.95;1.83;;;;;;;19.13;71.88;68896.19;5063234;28;20102;-79
2022/07/08 10:29:17;;;;;;;4.13;1.80;;;;;;;18.97;71.32;68883.31;5040697;28;20545;-79
2022/07/08 10:31:52;;;;;;;5.70;2.17;;;;;;;19.14;71.12;68896.75;5059428;28;20041;-78
2022/07/08 10:34:28;;;;;;;10.90;1.95;;;;;;;19.20;70.58;68908.44;5058602;28;20492;-80
2022/07/08 10:36:53;;;;;;;5.65;1.98;;;;;;;;;;5053810;28;20056;-79
2022/07/08 10:39:41;;;;;;;7.68;2.00;;;;;;;19.46;70.39;68932.75;5062112;28;20051;-79
2022/07/08 10:42:08;;;;;;;6.35;1.77;;;;;;;19.42;69.52;68927.59;5057368;28;20044;-79
2022/07/08 10:44:43;;;;;;;5.18;1.88;;;;;;;19.33;69.53;68917.88;5062020;28;20032;-78
2022/07/08 10:47:14;;;;;;;5.85;2.13;;;;;;;19.24;70.07;68913.56;5057739;28;20036;-79
2022/07/08 10:49:49;;;;;;;6.82;1.77;;;;;;;19.23;70.39;68906.47;5058371;28;20048;-77
2022/07/08 10:52:16;;;;;;;5.30;1.88;;;;;;;19.49;71.21;68932.91;5058232;28;20036;-76
2022/07/08 10:54:42;;;;;;;6.43;1.70;;;;;;;19.67;70.21;68952.91;5060313;28;20043;-77
2022/07/08 10:57:14;;;;;;;3.10;1.67;;;;;;;19.79;67.75;68967.22;5061531;28;20401;-77
2022/07/08 10:59:40;;;;;;;4.50;1.55;;;;;;;19.74;67.84;68963.63;5059450;28;20436;-77
2022/07/08 11:02:20;;;;;;;6.35;1.85;;;;;;;19.64;68.64;68957.56;5058507;28;20071;-79
2022/07/08 11:04:51;;;;;;;4.20;1.90;;;;;;;19.64;69.02;68950.03;5059445;28;20566;-77
2022/07/08 11:07:16;;;;;;;11.77;2.45;;;;;;;19.87;68.99;68977.91;5057925;28;20044;-78
2022/07/08 11:09:43;;;;;;;6.22;1.90;;;;;;;20.05;69.61;68996.38;5060568;28;20499;-80
2022/07/08 11:12:16;;;;;;;6.28;2.00;;;;;;;20.39;68.32;69042.19;5064403;28;20036;-77
2022/07/08 11:14:43;;;;;;;6.18;1.90;;;;;;;20.55;67.86;69051.25;5061204;28;20032;-78
2022/07/08 11:17:25;;;;;;;10.18;2.25;;;;;;;20.65;68.13;69062.69;5077236;28;20052;-78
2022/07/08 11:19:53;;;;;;;6.85;2.50;;;;;;;20.83;66.42;69086.00;5060602;28;20129;-80
2022/07/08 11:22:19;;;;;;;6.47;2.42;;;;;;;;;;5061887;28;20033;-78
2022/07/08 11:24:45;;;;;;;5.65;1.92;;;;;;;20.28;67.92;69030.19;5061283;28;20139;-78
2022/07/08 11:27:11;;;;;;;7.18;2.22;;;;;;;20.34;67.20;69031.09;5065991;28;20537;-78
2022/07/08 11:29:44;;;;;;;8.30;2.58;;;;;;;20.41;68.12;69039.06;5064930;28;20059;-78
2022/07/08 11:32:10;;;;;;;5.50;1.67;;;;;;;20.66;68.09;69063.84;5074295;28;20055;-79
2022/07/08 11:34:35;;;;;;;7.75;2.58;;;;;;;20.56;66.45;69052.41;5062418;28;20115;-77
2022/07/08 11:37:02;;;;;;;8.35;2.30;;;;;;;20.58;67.62;69054.69;5065755;28;20385;-76
2022/07/08 11:39:28;;;;;;;7.22;2.25;;;;;;;20.64;68.08;69064.25;5063011;28;20036;-77
2022/07/08 11:41:54;;;;;;;8.95;2.45;;;;;;;20.73;66.80;69074.56;5061034;28;20065;-77
2022/07/08 11:44:21;;;;;;;6.43;2.10;;;;;;;20.73;68.11;69069.13;5063555;28;20568;-78
2022/07/08 11:46:51;;;;;;;6.93;2.20;;;;;;;20.81;66.32;69080.44;5066090;28;20056;-78
2022/07/08 11:49:18;;;;;;;6.60;2.33;;;;;;;20.89;66.74;69092.28;5066005;28;20110;-78
2022/07/08 11:51:47;;;;;;;6.95;2.22;;;;;;;20.93;66.76;69091.44;5058555;28;20040;-78
2022/07/08 11:54:14;;;;;;;6.05;2.17;;;;;;;20.93;66.48;69091.44;5067825;28;20066;-76
2022/07/08 11:56:40;;;;;;;8.20;2.60;;;;;;;20.79;67.65;69081.41;5060523;28;20045;-80
2022/07/08 11:59:06;;;;;;;6.68;1.73;;;;;;;20.91;66.35;69089.72;5063775;28;20571;-79
2022/07/08 12:01:33;;;;;;;7.15;2.35;;;;;;;;;;5061831;28;20040;-77
2022/07/08 12:03:59;;;;;;;7.30;2.25;;;;;;;20.73;67.76;69074.56;5052937;28;20052;-79
2022/07/08 12:06:26;;;;;;;8.10;2.65;;;;;;;20.66;66.13;69064.41;5074813;28;20051;-79
2022/07/08 12:08:52;;;;;;;7.93;2.20;;;;;;;20.76;66.45;69074.69;5061398;28;20031;-79
2022/07/08 12:11:19;;;;;;;5.50;1.70;;;;;;;20.69;66.56;69067.84;5070111;28;20166;-78
2022/07/08 12:13:47;;;;;;;8.85;2.20;;;;;;;20.87;68.25;69087.84;5068484;28;20040;-79
2022/07/08 12:16:33;;;;;;;8.32;2.25;;;;;;;21.17;66.58;69123.72;5067896;28;20536;-78
2022/07/08 12:19:00;;;;;;;6.07;2.17;;;;;;;21.45;65.40;69149.81;5062844;28;20074;-78
2022/07/08 12:21:26;;;;;;;7.97;1.90;;;;;;;21.49;65.98;69156.50;5063321;28;20040;-80
2022/07/08 12:24:09;;;;;;;6.53;1.80;;;;;;;;;;5068730;28;20115;-78